Thunder radar more information blitzortung!


Radar de pluja more information rain snow radar


Visita la nostra xarxa de llocs de meteo:

Template documentation
and downloads

And another site



No particular awareness of the weather is required.    There are no Weather-warnings

Pagina Historial Weather Underground text

Diari Resum Novembre 6, 2017 Unitats:  Tant    Imperial   Mètric
« Previous Dia
SegĂźent Dia »
Diari Setmana Mensual Anual Personalitzada
  Maxima: Minima: Media:
Temperatura: 60.4 °F /  15.8 °C 38.5 °F /  3.6 °C 51.6 °F /  10.9 °C
Punt de rosada: 35.4 °F /  1.9 °C 12.6 °F /  -10.8 °C 21.9 °F /  -5.6 °C
Humitat: 62 % 22 % 32 %
Wind Speed: 13.8 mph /  22.2 km/h - 4.3 mph /  6.9 km/h
RĂ fegues de vent: 13.8 mph /  22.2 km/h - -
Vent:- - WSW
Pression baro: 30.1 in /  1018.8 hPa 29.9 in /  1013.8 hPa -
Precipitacions: 0 in /  0.0 mm    
Historical Graphs
 
 
Dades de taula per Novembre 6, 2017
Temps Temperatura Punt de rosada Pression baro Vent Wind Speed RĂ fegues de vent Humitat Rainfall Rate (Hourly)
00:00 45.5 °F /  7.5 °C 33.3 °F /  0.7 °C 30 in /  1016.8 hPa West 3 mph /  4.8 km/h 5 mph /  8.0 km/h 62 % 0 in /  0.0 mm
00:03 49.6 °F /  9.8 °C 35.4 °F /  1.9 °C 30 in /  1016.8 hPa WSW 5.8 mph /  9.3 km/h 5.8 mph /  9.3 km/h 58 % 0 in /  0.0 mm
00:10 45.7 °F /  7.6 °C 33.1 °F /  0.6 °C 30 in /  1016.8 hPa WSW 3 mph /  4.8 km/h 4 mph /  6.4 km/h 61 % 0 in /  0.0 mm
00:20 45.5 °F /  7.5 °C 32.7 °F /  0.4 °C 30 in /  1016.8 hPa WSW 3 mph /  4.8 km/h 4 mph /  6.4 km/h 61 % 0 in /  0.0 mm
00:30 45.3 °F /  7.4 °C 32.2 °F /  0.1 °C 30 in /  1016.8 hPa West 3 mph /  4.8 km/h 6 mph /  9.7 km/h 60 % 0 in /  0.0 mm
00:40 45.3 °F /  7.4 °C 32.2 °F /  0.1 °C 30.1 in /  1017.8 hPa West 3 mph /  4.8 km/h 3 mph /  4.8 km/h 60 % 0 in /  0.0 mm
00:50 45 °F /  7.2 °C 31.5 °F /  -0.3 °C 30.1 in /  1017.8 hPa WSW 3 mph /  4.8 km/h 4 mph /  6.4 km/h 59 % 0 in /  0.0 mm
01:00 44.6 °F /  7.0 °C 31.6 °F /  -0.2 °C 30 in /  1016.8 hPa WSW 5 mph /  8.0 km/h 5 mph /  8.0 km/h 60 % 0 in /  0.0 mm
01:10 44.4 °F /  6.9 °C 31.5 °F /  -0.3 °C 30.1 in /  1017.8 hPa WSW 3 mph /  4.8 km/h 6 mph /  9.7 km/h 60 % 0 in /  0.0 mm
01:20 44.8 °F /  7.1 °C 31.3 °F /  -0.4 °C 30.1 in /  1017.8 hPa West 2 mph /  3.2 km/h 4 mph /  6.4 km/h 59 % 0 in /  0.0 mm
01:30 45 °F /  7.2 °C 31.1 °F /  -0.5 °C 30.1 in /  1017.8 hPa West 3 mph /  4.8 km/h 5 mph /  8.0 km/h 58 % 0 in /  0.0 mm
01:40 45.1 °F /  7.3 °C 30.7 °F /  -0.7 °C 30.1 in /  1017.8 hPa WSW 3 mph /  4.8 km/h 5 mph /  8.0 km/h 57 % 0 in /  0.0 mm
01:50 45.3 °F /  7.4 °C 30.9 °F /  -0.6 °C 30.1 in /  1017.8 hPa WSW 1 mph /  1.6 km/h 3 mph /  4.8 km/h 57 % 0 in /  0.0 mm
02:00 45.7 °F /  7.6 °C 30.9 °F /  -0.6 °C 30.1 in /  1017.8 hPa WSW 2 mph /  3.2 km/h 4 mph /  6.4 km/h 56 % 0 in /  0.0 mm
02:10 46 °F /  7.8 °C 30.7 °F /  -0.7 °C 30.1 in /  1017.8 hPa WSW 1 mph /  1.6 km/h 3 mph /  4.8 km/h 55 % 0 in /  0.0 mm
02:20 46.6 °F /  8.1 °C 31.3 °F /  -0.4 °C 30.1 in /  1017.8 hPa WSW 3 mph /  4.8 km/h 4 mph /  6.4 km/h 55 % 0 in /  0.0 mm
02:30 47.3 °F /  8.5 °C 31.5 °F /  -0.3 °C 30.1 in /  1017.8 hPa WSW 6 mph /  9.7 km/h 6 mph /  9.7 km/h 54 % 0 in /  0.0 mm
02:45 48.2 °F /  9.0 °C 31.5 °F /  -0.3 °C 30.1 in /  1017.8 hPa WSW 2 mph /  3.2 km/h 5 mph /  8.0 km/h 52 % 0 in /  0.0 mm
02:55 48.9 °F /  9.4 °C 32 °F /  0.0 °C 30.1 in /  1017.8 hPa SW 2 mph /  3.2 km/h 3 mph /  4.8 km/h 52 % 0 in /  0.0 mm
03:05 49.8 °F /  9.9 °C 32.9 °F /  0.5 °C 30.1 in /  1017.8 hPa SW 3 mph /  4.8 km/h 4 mph /  6.4 km/h 52 % 0 in /  0.0 mm
03:15 50.4 °F /  10.2 °C 33.4 °F /  0.8 °C 30.1 in /  1017.8 hPa SW 2 mph /  3.2 km/h 3 mph /  4.8 km/h 52 % 0 in /  0.0 mm
03:25 51.1 °F /  10.6 °C 33.6 °F /  0.9 °C 30.1 in /  1017.8 hPa SW 3 mph /  4.8 km/h 5 mph /  8.0 km/h 51 % 0 in /  0.0 mm
03:35 51.4 °F /  10.8 °C 33.4 °F /  0.8 °C 30.1 in /  1017.8 hPa SW 6 mph /  9.7 km/h 7 mph /  11.3 km/h 50 % 0 in /  0.0 mm
03:45 52 °F /  11.1 °C 33.4 °F /  0.8 °C 30.1 in /  1017.8 hPa WSW 7 mph /  11.3 km/h 7 mph /  11.3 km/h 49 % 0 in /  0.0 mm
03:55 52.3 °F /  11.3 °C 33.3 °F /  0.7 °C 30.1 in /  1017.8 hPa WSW 2 mph /  3.2 km/h 8 mph /  12.9 km/h 48 % 0 in /  0.0 mm
04:05 52.9 °F /  11.6 °C 33.6 °F /  0.9 °C 30.1 in /  1017.8 hPa WSW 3 mph /  4.8 km/h 5 mph /  8.0 km/h 48 % 0 in /  0.0 mm
04:15 53.8 °F /  12.1 °C 34 °F /  1.1 °C 30.1 in /  1017.8 hPa WSW 3 mph /  4.8 km/h 4 mph /  6.4 km/h 47 % 0 in /  0.0 mm
04:25 54 °F /  12.2 °C 34.2 °F /  1.2 °C 30.1 in /  1017.8 hPa SW 5 mph /  8.0 km/h 6 mph /  9.7 km/h 47 % 0 in /  0.0 mm
04:35 55.2 °F /  12.9 °C 34.9 °F /  1.6 °C 30.1 in /  1017.8 hPa WSW 2 mph /  3.2 km/h 6 mph /  9.7 km/h 46 % 0 in /  0.0 mm
10:38 55.4 °F /  13.0 °C 34.3 °F /  1.3 °C 30.1 in /  1017.8 hPa NW 2.3 mph /  3.7 km/h 2.4 mph /  3.9 km/h 45 % 0 in /  0.0 mm
10:39 55.4 °F /  13.0 °C 34.3 °F /  1.3 °C 30.1 in /  1017.8 hPa West 5.8 mph /  9.3 km/h 5.8 mph /  9.3 km/h 45 % 0 in /  0.0 mm
10:44 55.6 °F /  13.1 °C 35.1 °F /  1.7 °C 30.1 in /  1017.8 hPa West 5.8 mph /  9.3 km/h 5.8 mph /  9.3 km/h 46 % 0 in /  0.0 mm
10:49 55.8 °F /  13.2 °C 35.2 °F /  1.8 °C 30.1 in /  1017.8 hPa SW 5.8 mph /  9.3 km/h 5.8 mph /  9.3 km/h 46 % 0 in /  0.0 mm
10:54 55.9 °F /  13.3 °C 34.9 °F /  1.6 °C 30.1 in /  1017.8 hPa WNW 4.6 mph /  7.4 km/h 4.6 mph /  7.4 km/h 45 % 0 in /  0.0 mm
10:59 55.8 °F /  13.2 °C 34.2 °F /  1.2 °C 30.1 in /  1017.8 hPa NNW 5.6 mph /  9.0 km/h 5.6 mph /  9.0 km/h 44 % 0 in /  0.0 mm
11:05 56.3 °F /  13.5 °C 34.5 °F /  1.4 °C 30.1 in /  1017.8 hPa SW 4 mph /  6.4 km/h 4 mph /  6.4 km/h 44 % 0 in /  0.0 mm
11:10 56.3 °F /  13.5 °C 35.2 °F /  1.8 °C 30.1 in /  1017.8 hPa West 4.6 mph /  7.4 km/h 4.6 mph /  7.4 km/h 45 % 0 in /  0.0 mm
11:15 56.3 °F /  13.5 °C 34.5 °F /  1.4 °C 30.1 in /  1017.8 hPa West 5.8 mph /  9.3 km/h 5.9 mph /  9.5 km/h 44 % 0 in /  0.0 mm
11:20 56.7 °F /  13.7 °C 35.1 °F /  1.7 °C 30.1 in /  1017.8 hPa West 4.6 mph /  7.4 km/h 4.6 mph /  7.4 km/h 44 % 0 in /  0.0 mm
11:25 57 °F /  13.9 °C 34.7 °F /  1.5 °C 30 in /  1016.8 hPa SW 3.5 mph /  5.6 km/h 3.5 mph /  5.6 km/h 43 % 0 in /  0.0 mm
11:30 57 °F /  13.9 °C 35.2 °F /  1.8 °C 30 in /  1016.8 hPa SW 5.9 mph /  9.5 km/h 5.9 mph /  9.5 km/h 44 % 0 in /  0.0 mm
11:35 57.4 °F /  14.1 °C 35.1 °F /  1.7 °C 30 in /  1016.8 hPa WNW 5.8 mph /  9.3 km/h 5.8 mph /  9.3 km/h 43 % 0 in /  0.0 mm
11:40 57.6 °F /  14.2 °C 35.2 °F /  1.8 °C 30.1 in /  1017.8 hPa WSW 4.9 mph /  7.9 km/h 4.9 mph /  7.9 km/h 43 % 0 in /  0.0 mm
11:45 57.6 °F /  14.2 °C 34.5 °F /  1.4 °C 30.1 in /  1017.8 hPa WSW 9.2 mph /  14.8 km/h 9.2 mph /  14.8 km/h 42 % 0 in /  0.0 mm
11:46 57.7 °F /  14.3 °C 34.9 °F /  1.6 °C 30.1 in /  1017.8 hPa West 5.8 mph /  9.3 km/h 5.8 mph /  9.3 km/h 42 % 0 in /  0.0 mm
11:51 58.1 °F /  14.5 °C 35.1 °F /  1.7 °C 30 in /  1016.8 hPa NW 6.9 mph /  11.1 km/h 6.9 mph /  11.1 km/h 42 % 0 in /  0.0 mm
11:56 57.7 °F /  14.3 °C 34.9 °F /  1.6 °C 30 in /  1016.8 hPa West 4.9 mph /  7.9 km/h 4.9 mph /  7.9 km/h 42 % 0 in /  0.0 mm
12:01 58.6 °F /  14.8 °C 35.1 °F /  1.7 °C 30 in /  1016.8 hPa WSW 3.5 mph /  5.6 km/h 3.5 mph /  5.6 km/h 41 % 0 in /  0.0 mm
12:06 59 °F /  15.0 °C 34.7 °F /  1.5 °C 30 in /  1015.8 hPa West 5.8 mph /  9.3 km/h 5.8 mph /  9.3 km/h 40 % 0 in /  0.0 mm
12:11 59 °F /  15.0 °C 34.7 °F /  1.5 °C 30 in /  1015.8 hPa WNW 8.1 mph /  13.0 km/h 8.1 mph /  13.0 km/h 40 % 0 in /  0.0 mm
12:16 59.4 °F /  15.2 °C 33.6 °F /  0.9 °C 30 in /  1015.8 hPa ENE 4.6 mph /  7.4 km/h 4.6 mph /  7.4 km/h 38 % 0 in /  0.0 mm
12:21 59.4 °F /  15.2 °C 33.1 °F /  0.6 °C 30 in /  1015.8 hPa West 5.8 mph /  9.3 km/h 5.8 mph /  9.3 km/h 37 % 0 in /  0.0 mm
12:26 59.9 °F /  15.5 °C 32.9 °F /  0.5 °C 30 in /  1015.8 hPa WNW 4.6 mph /  7.4 km/h 4.6 mph /  7.4 km/h 36 % 0 in /  0.0 mm
12:31 60.4 °F /  15.8 °C 33.3 °F /  0.7 °C 30 in /  1015.8 hPa WNW 5.9 mph /  9.5 km/h 5.9 mph /  9.5 km/h 36 % 0 in /  0.0 mm
12:36 59.9 °F /  15.5 °C 32.9 °F /  0.5 °C 30 in /  1015.8 hPa WNW 5.8 mph /  9.3 km/h 5.8 mph /  9.3 km/h 36 % 0 in /  0.0 mm
12:41 59.7 °F /  15.4 °C 31.3 °F /  -0.4 °C 30 in /  1015.8 hPa SE 3.6 mph /  5.8 km/h 3.6 mph /  5.8 km/h 34 % 0 in /  0.0 mm
12:46 59.7 °F /  15.4 °C 31.3 °F /  -0.4 °C 30 in /  1015.8 hPa NNW 5.8 mph /  9.3 km/h 5.8 mph /  9.3 km/h 34 % 0 in /  0.0 mm
12:51 59.9 °F /  15.5 °C 31.5 °F /  -0.3 °C 30 in /  1015.8 hPa SW 8.1 mph /  13.0 km/h 8.1 mph /  13.0 km/h 34 % 0 in /  0.0 mm
12:56 60.3 °F /  15.7 °C 31.8 °F /  -0.1 °C 30 in /  1015.8 hPa NW 4.6 mph /  7.4 km/h 4.6 mph /  7.4 km/h 34 % 0 in /  0.0 mm
13:01 59.9 °F /  15.5 °C 30.7 °F /  -0.7 °C 30 in /  1015.8 hPa NW 5.8 mph /  9.3 km/h 5.8 mph /  9.3 km/h 33 % 0 in /  0.0 mm
13:06 60.3 °F /  15.7 °C 30.9 °F /  -0.6 °C 30 in /  1014.8 hPa SSW 5.8 mph /  9.3 km/h 5.8 mph /  9.3 km/h 33 % 0 in /  0.0 mm
13:11 60.4 °F /  15.8 °C 31.3 °F /  -0.4 °C 30 in /  1014.8 hPa West 9.2 mph /  14.8 km/h 9.2 mph /  14.8 km/h 33 % 0 in /  0.0 mm
13:16 60.1 °F /  15.6 °C 30 °F /  -1.1 °C 30 in /  1014.8 hPa NNE 8.1 mph /  13.0 km/h 8.1 mph /  13.0 km/h 32 % 0 in /  0.0 mm
13:21 60.1 °F /  15.6 °C 29.3 °F /  -1.5 °C 30 in /  1015.8 hPa NW 5.8 mph /  9.3 km/h 5.8 mph /  9.3 km/h 31 % 0 in /  0.0 mm
13:26 60.1 °F /  15.6 °C 29.3 °F /  -1.5 °C 30 in /  1015.8 hPa NW 9.2 mph /  14.8 km/h 9.2 mph /  14.8 km/h 31 % 0 in /  0.0 mm
13:31 60.1 °F /  15.6 °C 30 °F /  -1.1 °C 30 in /  1015.8 hPa NW 5.8 mph /  9.3 km/h 5.8 mph /  9.3 km/h 32 % 0 in /  0.0 mm
13:36 59.7 °F /  15.4 °C 28.2 °F /  -2.1 °C 30 in /  1015.8 hPa SW 12.7 mph /  20.4 km/h 12.7 mph /  20.4 km/h 30 % 0 in /  0.0 mm
13:41 59.7 °F /  15.4 °C 28.9 °F /  -1.7 °C 30 in /  1015.8 hPa WNW 3.5 mph /  5.6 km/h 3.5 mph /  5.6 km/h 31 % 0 in /  0.0 mm
13:46 59.7 °F /  15.4 °C 28.2 °F /  -2.1 °C 30 in /  1015.8 hPa NW 9.2 mph /  14.8 km/h 9.2 mph /  14.8 km/h 30 % 0 in /  0.0 mm
13:51 59.7 °F /  15.4 °C 28.9 °F /  -1.7 °C 30 in /  1015.8 hPa NW 5.9 mph /  9.5 km/h 5.9 mph /  9.5 km/h 31 % 0 in /  0.0 mm
13:56 59.7 °F /  15.4 °C 28.2 °F /  -2.1 °C 30 in /  1015.8 hPa WNW 8.1 mph /  13.0 km/h 8.1 mph /  13.0 km/h 30 % 0 in /  0.0 mm
14:01 59.9 °F /  15.5 °C 28.4 °F /  -2.0 °C 30 in /  1015.8 hPa WSW 4.6 mph /  7.4 km/h 4.6 mph /  7.4 km/h 30 % 0 in /  0.0 mm
14:06 60.1 °F /  15.6 °C 29.3 °F /  -1.5 °C 30 in /  1015.8 hPa NW 4.9 mph /  7.9 km/h 4.9 mph /  7.9 km/h 31 % 0 in /  0.0 mm
14:11 59.9 °F /  15.5 °C 28.4 °F /  -2.0 °C 30 in /  1015.8 hPa NNW 5.8 mph /  9.3 km/h 5.8 mph /  9.3 km/h 30 % 0 in /  0.0 mm
14:16 60.1 °F /  15.6 °C 28.6 °F /  -1.9 °C 30 in /  1015.8 hPa NW 7.1 mph /  11.4 km/h 7.1 mph /  11.4 km/h 30 % 0 in /  0.0 mm
14:21 60.3 °F /  15.7 °C 28.8 °F /  -1.8 °C 30 in /  1015.8 hPa WNW 4.6 mph /  7.4 km/h 4.6 mph /  7.4 km/h 30 % 0 in /  0.0 mm
14:26 60.4 °F /  15.8 °C 28.8 °F /  -1.8 °C 30 in /  1015.8 hPa West 6.9 mph /  11.1 km/h 6.9 mph /  11.1 km/h 30 % 0 in /  0.0 mm
14:31 60.4 °F /  15.8 °C 28.8 °F /  -1.8 °C 30 in /  1015.8 hPa WNW 8.1 mph /  13.0 km/h 8.1 mph /  13.0 km/h 30 % 0 in /  0.0 mm
14:36 60.3 °F /  15.7 °C 27 °F /  -2.8 °C 30 in /  1014.8 hPa West 13.8 mph /  22.2 km/h 13.8 mph /  22.2 km/h 28 % 0 in /  0.0 mm
14:41 60.1 °F /  15.6 °C 26.8 °F /  -2.9 °C 30 in /  1014.8 hPa WSW 8.1 mph /  13.0 km/h 8.1 mph /  13.0 km/h 28 % 0 in /  0.0 mm
14:46 60.3 °F /  15.7 °C 27 °F /  -2.8 °C 30 in /  1014.8 hPa West 5.9 mph /  9.5 km/h 5.9 mph /  9.5 km/h 28 % 0 in /  0.0 mm
14:51 60.4 °F /  15.8 °C 28 °F /  -2.2 °C 30 in /  1014.8 hPa NNW 4.6 mph /  7.4 km/h 4.6 mph /  7.4 km/h 29 % 0 in /  0.0 mm
14:56 60.3 °F /  15.7 °C 27 °F /  -2.8 °C 30 in /  1014.8 hPa West 9.2 mph /  14.8 km/h 9.2 mph /  14.8 km/h 28 % 0 in /  0.0 mm
15:01 60.3 °F /  15.7 °C 26.1 °F /  -3.3 °C 30 in /  1014.8 hPa South 10.4 mph /  16.7 km/h 10.4 mph /  16.7 km/h 27 % 0 in /  0.0 mm
15:06 60.1 °F /  15.6 °C 26.1 °F /  -3.3 °C 30 in /  1014.8 hPa WSW 5.8 mph /  9.3 km/h 5.8 mph /  9.3 km/h 27 % 0 in /  0.0 mm
15:11 60.1 °F /  15.6 °C 26.1 °F /  -3.3 °C 30 in /  1014.8 hPa SW 6 mph /  9.7 km/h 6 mph /  9.7 km/h 27 % 0 in /  0.0 mm
15:16 60.1 °F /  15.6 °C 26.1 °F /  -3.3 °C 30 in /  1014.8 hPa SSE 4.6 mph /  7.4 km/h 4.6 mph /  7.4 km/h 27 % 0 in /  0.0 mm
15:21 60.1 °F /  15.6 °C 25 °F /  -3.9 °C 30 in /  1014.8 hPa NW 5.8 mph /  9.3 km/h 5.8 mph /  9.3 km/h 26 % 0 in /  0.0 mm
15:26 59.9 °F /  15.5 °C 25 °F /  -3.9 °C 30 in /  1014.8 hPa SW 9.2 mph /  14.8 km/h 9.2 mph /  14.8 km/h 26 % 0 in /  0.0 mm
15:31 59.7 °F /  15.4 °C 24.6 °F /  -4.1 °C 30 in /  1014.8 hPa WNW 3.1 mph /  5.0 km/h 3.1 mph /  5.0 km/h 26 % 0 in /  0.0 mm
15:36 59.5 °F /  15.3 °C 24.6 °F /  -4.1 °C 30 in /  1014.8 hPa East 5.8 mph /  9.3 km/h 5.8 mph /  9.3 km/h 26 % 0 in /  0.0 mm
15:41 59.9 °F /  15.5 °C 25.9 °F /  -3.4 °C 30 in /  1014.8 hPa West 4.6 mph /  7.4 km/h 4.6 mph /  7.4 km/h 27 % 0 in /  0.0 mm
15:46 59.7 °F /  15.4 °C 24.6 °F /  -4.1 °C 30 in /  1014.8 hPa NW 9.2 mph /  14.8 km/h 9.2 mph /  14.8 km/h 26 % 0 in /  0.0 mm
15:51 59.9 °F /  15.5 °C 25.9 °F /  -3.4 °C 30 in /  1014.8 hPa WNW 6 mph /  9.7 km/h 6 mph /  9.7 km/h 27 % 0 in /  0.0 mm
15:56 59.7 °F /  15.4 °C 24.6 °F /  -4.1 °C 30 in /  1014.8 hPa SSW 8.1 mph /  13.0 km/h 8.1 mph /  13.0 km/h 26 % 0 in /  0.0 mm
16:01 59.5 °F /  15.3 °C 23.5 °F /  -4.7 °C 30 in /  1014.8 hPa WNW 5.8 mph /  9.3 km/h 5.8 mph /  9.3 km/h 25 % 0 in /  0.0 mm
16:06 59.5 °F /  15.3 °C 24.6 °F /  -4.1 °C 30 in /  1014.8 hPa WNW 8.7 mph /  14.0 km/h 8.7 mph /  14.0 km/h 26 % 0 in /  0.0 mm
16:11 59 °F /  15.0 °C 23.2 °F /  -4.9 °C 30 in /  1014.8 hPa SW 5.8 mph /  9.3 km/h 5.8 mph /  9.3 km/h 25 % 0 in /  0.0 mm
16:16 58.8 °F /  14.9 °C 22.1 °F /  -5.5 °C 30 in /  1014.8 hPa West 7.1 mph /  11.4 km/h 7.1 mph /  11.4 km/h 24 % 0 in /  0.0 mm
16:21 58.5 °F /  14.7 °C 20.7 °F /  -6.3 °C 29.9 in /  1013.8 hPa WNW 5.8 mph /  9.3 km/h 5.8 mph /  9.3 km/h 23 % 0 in /  0.0 mm
16:22 58.5 °F /  14.7 °C 20.7 °F /  -6.3 °C 29.9 in /  1013.8 hPa West 6.9 mph /  11.1 km/h 6.9 mph /  11.1 km/h 23 % 0 in /  0.0 mm
16:27 58.3 °F /  14.6 °C 21.6 °F /  -5.8 °C 29.9 in /  1013.8 hPa West 5.8 mph /  9.3 km/h 5.8 mph /  9.3 km/h 24 % 0 in /  0.0 mm
16:32 58.1 °F /  14.5 °C 21.4 °F /  -5.9 °C 29.9 in /  1013.8 hPa West 11.5 mph /  18.5 km/h 11.5 mph /  18.5 km/h 24 % 0 in /  0.0 mm
16:37 57.9 °F /  14.4 °C 21.4 °F /  -5.9 °C 29.9 in /  1013.8 hPa WNW 8.1 mph /  13.0 km/h 8.1 mph /  13.0 km/h 24 % 0 in /  0.0 mm
16:42 57.7 °F /  14.3 °C 21 °F /  -6.1 °C 29.9 in /  1013.8 hPa SW 5.8 mph /  9.3 km/h 5.8 mph /  9.3 km/h 24 % 0 in /  0.0 mm
16:47 57.6 °F /  14.2 °C 19.9 °F /  -6.7 °C 29.9 in /  1013.8 hPa South 4.6 mph /  7.4 km/h 4.6 mph /  7.4 km/h 23 % 0 in /  0.0 mm
16:52 57.4 °F /  14.1 °C 19.8 °F /  -6.8 °C 29.9 in /  1013.8 hPa WSW 9.2 mph /  14.8 km/h 9.2 mph /  14.8 km/h 23 % 0 in /  0.0 mm
16:57 57.2 °F /  14.0 °C 19.8 °F /  -6.8 °C 29.9 in /  1013.8 hPa West 5.9 mph /  9.5 km/h 5.9 mph /  9.5 km/h 23 % 0 in /  0.0 mm
17:02 57 °F /  13.9 °C 19.6 °F /  -6.9 °C 29.9 in /  1013.8 hPa WNW 9.2 mph /  14.8 km/h 9.2 mph /  14.8 km/h 23 % 0 in /  0.0 mm
17:07 56.7 °F /  13.7 °C 18.1 °F /  -7.7 °C 30 in /  1014.8 hPa WNW 11.5 mph /  18.5 km/h 11.5 mph /  18.5 km/h 22 % 0 in /  0.0 mm
17:12 56.5 °F /  13.6 °C 18 °F /  -7.8 °C 30 in /  1014.8 hPa West 10.4 mph /  16.7 km/h 10.4 mph /  16.7 km/h 22 % 0 in /  0.0 mm
17:17 55.9 °F /  13.3 °C 17.6 °F /  -8.0 °C 30 in /  1014.8 hPa NW 4.6 mph /  7.4 km/h 4.6 mph /  7.4 km/h 22 % 0 in /  0.0 mm
17:22 55.6 °F /  13.1 °C 17.2 °F /  -8.2 °C 29.9 in /  1013.8 hPa SW 9.2 mph /  14.8 km/h 9.2 mph /  14.8 km/h 22 % 0 in /  0.0 mm
17:27 55.4 °F /  13.0 °C 17.1 °F /  -8.3 °C 29.9 in /  1013.8 hPa WSW 4.6 mph /  7.4 km/h 4.6 mph /  7.4 km/h 22 % 0 in /  0.0 mm
17:32 55 °F /  12.8 °C 16.9 °F /  -8.4 °C 29.9 in /  1013.8 hPa West 4.6 mph /  7.4 km/h 4.6 mph /  7.4 km/h 22 % 0 in /  0.0 mm
17:37 54.9 °F /  12.7 °C 16.7 °F /  -8.5 °C 30 in /  1014.8 hPa WSW 8.1 mph /  13.0 km/h 8.1 mph /  13.0 km/h 22 % 0 in /  0.0 mm
17:42 54.7 °F /  12.6 °C 16.5 °F /  -8.6 °C 30 in /  1014.8 hPa ESE 6.9 mph /  11.1 km/h 6.9 mph /  11.1 km/h 22 % 0 in /  0.0 mm
17:47 54.5 °F /  12.5 °C 16.3 °F /  -8.7 °C 30 in /  1014.8 hPa West 6 mph /  9.7 km/h 6 mph /  9.7 km/h 22 % 0 in /  0.0 mm
17:52 54.3 °F /  12.4 °C 16.2 °F /  -8.8 °C 30 in /  1014.8 hPa WSW 9.2 mph /  14.8 km/h 9.2 mph /  14.8 km/h 22 % 0 in /  0.0 mm
17:57 54.3 °F /  12.4 °C 16.2 °F /  -8.8 °C 30 in /  1014.8 hPa SSW 4.6 mph /  7.4 km/h 4.6 mph /  7.4 km/h 22 % 0 in /  0.0 mm
18:02 54 °F /  12.2 °C 16 °F /  -8.9 °C 30 in /  1014.8 hPa West 6.9 mph /  11.1 km/h 6.9 mph /  11.1 km/h 22 % 0 in /  0.0 mm
18:07 53.8 °F /  12.1 °C 15.8 °F /  -9.0 °C 30 in /  1014.8 hPa WSW 8.7 mph /  14.0 km/h 8.7 mph /  14.0 km/h 22 % 0 in /  0.0 mm
18:12 53.6 °F /  12.0 °C 15.6 °F /  -9.1 °C 30 in /  1014.8 hPa SW 6.9 mph /  11.1 km/h 6.9 mph /  11.1 km/h 22 % 0 in /  0.0 mm
18:15 44.6 °F /  7.0 °C 14.4 °F /  -9.8 °C 30 in /  1016.8 hPa WSW 1 mph /  1.6 km/h 2 mph /  3.2 km/h 29 % 0 in /  0.0 mm
18:17 53.4 °F /  11.9 °C 15.4 °F /  -9.2 °C 30 in /  1014.8 hPa West 4.6 mph /  7.4 km/h 4.6 mph /  7.4 km/h 22 % 0 in /  0.0 mm
18:22 53.2 °F /  11.8 °C 15.3 °F /  -9.3 °C 30 in /  1014.8 hPa ENE 4.6 mph /  7.4 km/h 4.6 mph /  7.4 km/h 22 % 0 in /  0.0 mm
18:23 53.2 °F /  11.8 °C 15.3 °F /  -9.3 °C 30 in /  1014.8 hPa WSW 3.5 mph /  5.6 km/h 3.5 mph /  5.6 km/h 22 % 0 in /  0.0 mm
18:25 44.2 °F /  6.8 °C 13.8 °F /  -10.1 °C 30 in /  1015.8 hPa West 1 mph /  1.6 km/h 2 mph /  3.2 km/h 29 % 0 in /  0.0 mm
18:28 53.1 °F /  11.7 °C 15.3 °F /  -9.3 °C 30 in /  1014.8 hPa West 6.4 mph /  10.3 km/h 6.4 mph /  10.3 km/h 22 % 0 in /  0.0 mm
18:33 52.9 °F /  11.6 °C 15.1 °F /  -9.4 °C 30 in /  1014.8 hPa NW 5.8 mph /  9.3 km/h 5.8 mph /  9.3 km/h 22 % 0 in /  0.0 mm
18:35 44.1 °F /  6.7 °C 13.8 °F /  -10.1 °C 30 in /  1015.8 hPa WNW 1 mph /  1.6 km/h 1 mph /  1.6 km/h 29 % 0 in /  0.0 mm
18:38 52.9 °F /  11.6 °C 15.1 °F /  -9.4 °C 30 in /  1014.8 hPa North 2.9 mph /  4.7 km/h 2.9 mph /  4.7 km/h 22 % 0 in /  0.0 mm
18:43 52.7 °F /  11.5 °C 14.9 °F /  -9.5 °C 30 in /  1014.8 hPa West 3.5 mph /  5.6 km/h 3.5 mph /  5.6 km/h 22 % 0 in /  0.0 mm
18:44 52.5 °F /  11.4 °C 14.7 °F /  -9.6 °C 30 in /  1014.8 hPa West 3.5 mph /  5.6 km/h 3.6 mph /  5.8 km/h 22 % 0 in /  0.0 mm
18:45 43.9 °F /  6.6 °C 14.4 °F /  -9.8 °C 30 in /  1016.8 hPa West 2 mph /  3.2 km/h 2 mph /  3.2 km/h 30 % 0 in /  0.0 mm
18:49 52.3 °F /  11.3 °C 15.6 °F /  -9.1 °C 30 in /  1014.8 hPa NNW 3.5 mph /  5.6 km/h 3.5 mph /  5.6 km/h 23 % 0 in /  0.0 mm
18:54 52.2 °F /  11.2 °C 15.4 °F /  -9.2 °C 30 in /  1014.8 hPa West 4.6 mph /  7.4 km/h 4.6 mph /  7.4 km/h 23 % 0 in /  0.0 mm
18:55 43.9 °F /  6.6 °C 14.4 °F /  -9.8 °C 30 in /  1016.8 hPa Calm   2 mph /  3.2 km/h 30 % 0 in /  0.0 mm
18:59 52 °F /  11.1 °C 15.3 °F /  -9.3 °C 30 in /  1014.8 hPa SW 4.6 mph /  7.4 km/h 4.6 mph /  7.4 km/h 23 % 0 in /  0.0 mm
19:04 51.6 °F /  10.9 °C 15.1 °F /  -9.4 °C 30 in /  1014.8 hPa WSW 4.6 mph /  7.4 km/h 4.6 mph /  7.4 km/h 23 % 0 in /  0.0 mm
19:05 43.7 °F /  6.5 °C 14.2 °F /  -9.9 °C 30 in /  1016.8 hPa West 1 mph /  1.6 km/h 2 mph /  3.2 km/h 30 % 0 in /  0.0 mm
19:09 51.6 °F /  10.9 °C 15.1 °F /  -9.4 °C 30 in /  1014.8 hPa West 3.1 mph /  5.0 km/h 3.1 mph /  5.0 km/h 23 % 0 in /  0.0 mm
19:14 51.3 °F /  10.7 °C 14.7 °F /  -9.6 °C 30 in /  1014.8 hPa NE 2.3 mph /  3.7 km/h 2.3 mph /  3.7 km/h 23 % 0 in /  0.0 mm
19:15 43.3 °F /  6.3 °C 13.8 °F /  -10.1 °C 30 in /  1016.8 hPa WSW 2 mph /  3.2 km/h 3 mph /  4.8 km/h 30 % 0 in /  0.0 mm
19:19 51.4 °F /  10.8 °C 14.7 °F /  -9.6 °C 30 in /  1014.8 hPa West 3.5 mph /  5.6 km/h 3.5 mph /  5.6 km/h 23 % 0 in /  0.0 mm
19:24 51.3 °F /  10.7 °C 14.7 °F /  -9.6 °C 30 in /  1014.8 hPa NNE 2.6 mph /  4.2 km/h 2.6 mph /  4.2 km/h 23 % 0 in /  0.0 mm
19:25 43 °F /  6.1 °C 13.6 °F /  -10.2 °C 30 in /  1016.8 hPa Calm   2 mph /  3.2 km/h 30 % 0 in /  0.0 mm
19:29 51.1 °F /  10.6 °C 14.5 °F /  -9.7 °C 30 in /  1014.8 hPa SW 4.6 mph /  7.4 km/h 4.6 mph /  7.4 km/h 23 % 0 in /  0.0 mm
19:34 51.3 °F /  10.7 °C 14.7 °F /  -9.6 °C 30 in /  1014.8 hPa ESE 6.9 mph /  11.1 km/h 6.9 mph /  11.1 km/h 23 % 0 in /  0.0 mm
19:35 43 °F /  6.1 °C 13.6 °F /  -10.2 °C 30 in /  1016.8 hPa West 2 mph /  3.2 km/h 2 mph /  3.2 km/h 30 % 0 in /  0.0 mm
19:39 51.1 °F /  10.6 °C 14.5 °F /  -9.7 °C 30 in /  1015.8 hPa WNW 4.6 mph /  7.4 km/h 4.6 mph /  7.4 km/h 23 % 0 in /  0.0 mm
19:44 51.1 °F /  10.6 °C 14.5 °F /  -9.7 °C 30 in /  1015.8 hPa NW 3.5 mph /  5.6 km/h 3.5 mph /  5.6 km/h 23 % 0 in /  0.0 mm
19:45 42.6 °F /  5.9 °C 14 °F /  -10.0 °C 30 in /  1016.8 hPa WSW 1 mph /  1.6 km/h 3 mph /  4.8 km/h 31 % 0 in /  0.0 mm
19:49 50.9 °F /  10.5 °C 15.3 °F /  -9.3 °C 30 in /  1015.8 hPa NW 4.6 mph /  7.4 km/h 4.6 mph /  7.4 km/h 24 % 0 in /  0.0 mm
19:54 50.5 °F /  10.3 °C 15.1 °F /  -9.4 °C 30 in /  1015.8 hPa WSW 3.5 mph /  5.6 km/h 3.5 mph /  5.6 km/h 24 % 0 in /  0.0 mm
19:55 41.7 °F /  5.4 °C 13.3 °F /  -10.4 °C 30 in /  1016.8 hPa WSW 1 mph /  1.6 km/h 3 mph /  4.8 km/h 31 % 0 in /  0.0 mm
19:59 50.4 °F /  10.2 °C 14.9 °F /  -9.5 °C 30 in /  1015.8 hPa WSW 3.5 mph /  5.6 km/h 3.5 mph /  5.6 km/h 24 % 0 in /  0.0 mm
20:04 49.8 °F /  9.9 °C 14.4 °F /  -9.8 °C 30 in /  1015.8 hPa WNW 2.4 mph /  3.9 km/h 2.4 mph /  3.9 km/h 24 % 0 in /  0.0 mm
20:05 49.8 °F /  9.9 °C 14.4 °F /  -9.8 °C 30 in /  1015.8 hPa WNW 2.3 mph /  3.7 km/h 2.3 mph /  3.7 km/h 24 % 0 in /  0.0 mm
20:10 49.6 °F /  9.8 °C 14.4 °F /  -9.8 °C 30 in /  1015.8 hPa West 2.6 mph /  4.2 km/h 2.6 mph /  4.2 km/h 24 % 0 in /  0.0 mm
20:15 49.5 °F /  9.7 °C 14.2 °F /  -9.9 °C 30 in /  1015.8 hPa West 3.5 mph /  5.6 km/h 3.5 mph /  5.6 km/h 24 % 0 in /  0.0 mm
20:20 49.3 °F /  9.6 °C 14 °F /  -10.0 °C 30 in /  1015.8 hPa WSW 3.5 mph /  5.6 km/h 3.5 mph /  5.6 km/h 24 % 0 in /  0.0 mm
20:25 48.9 °F /  9.4 °C 14.5 °F /  -9.7 °C 30 in /  1015.8 hPa SW 4.6 mph /  7.4 km/h 4.6 mph /  7.4 km/h 25 % 0 in /  0.0 mm
20:30 48.6 °F /  9.2 °C 14.4 °F /  -9.8 °C 30 in /  1015.8 hPa SSW 1.2 mph /  1.9 km/h 1.4 mph /  2.3 km/h 25 % 0 in /  0.0 mm
20:35 48.4 °F /  9.1 °C 14.2 °F /  -9.9 °C 30 in /  1015.8 hPa SSW 2.3 mph /  3.7 km/h 2.3 mph /  3.7 km/h 25 % 0 in /  0.0 mm
20:40 48.2 °F /  9.0 °C 14 °F /  -10.0 °C 30 in /  1015.8 hPa SE 1.6 mph /  2.6 km/h   25 % 0 in /  0.0 mm
20:45 48 °F /  8.9 °C 13.8 °F /  -10.1 °C 30 in /  1015.8 hPa NE 3.5 mph /  5.6 km/h 3.5 mph /  5.6 km/h 25 % 0 in /  0.0 mm
20:50 48.2 °F /  9.0 °C 14 °F /  -10.0 °C 30 in /  1015.8 hPa ENE 3.1 mph /  5.0 km/h 3.1 mph /  5.0 km/h 25 % 0 in /  0.0 mm
20:55 48.2 °F /  9.0 °C 14 °F /  -10.0 °C 30 in /  1015.8 hPa SW 2.3 mph /  3.7 km/h 2.3 mph /  3.7 km/h 25 % 0 in /  0.0 mm
21:00 47.8 °F /  8.8 °C 13.6 °F /  -10.2 °C 30 in /  1015.8 hPa East 2.3 mph /  3.7 km/h 2.3 mph /  3.7 km/h 25 % 0 in /  0.0 mm
21:05 47.8 °F /  8.8 °C 13.6 °F /  -10.2 °C 30 in /  1015.8 hPa ENE 2.3 mph /  3.7 km/h 2.3 mph /  3.7 km/h 25 % 0 in /  0.0 mm
21:10 47.7 °F /  8.7 °C 13.5 °F /  -10.3 °C 30 in /  1015.8 hPa NW 5.8 mph /  9.3 km/h 5.8 mph /  9.3 km/h 25 % 0 in /  0.0 mm
21:15 47.7 °F /  8.7 °C 13.5 °F /  -10.3 °C 30 in /  1015.8 hPa ENE 2.3 mph /  3.7 km/h 2.3 mph /  3.7 km/h 25 % 0 in /  0.0 mm
21:20 47.5 °F /  8.6 °C 13.5 °F /  -10.3 °C 30 in /  1015.8 hPa ENE 1.4 mph /  2.3 km/h 1.4 mph /  2.3 km/h 25 % 0 in /  0.0 mm
21:25 47.5 °F /  8.6 °C 13.5 °F /  -10.3 °C 30 in /  1015.8 hPa ENE 2.3 mph /  3.7 km/h   25 % 0 in /  0.0 mm
21:26 47.5 °F /  8.6 °C 13.5 °F /  -10.3 °C 30 in /  1015.8 hPa ESE 2.6 mph /  4.2 km/h   25 % 0 in /  0.0 mm
21:31 47.3 °F /  8.5 °C 13.3 °F /  -10.4 °C 30 in /  1015.8 hPa ENE 2.4 mph /  3.9 km/h 2.4 mph /  3.9 km/h 25 % 0 in /  0.0 mm
21:35 41 °F /  5.0 °C 13.5 °F /  -10.3 °C 30.1 in /  1017.8 hPa Calm   1 mph /  1.6 km/h 32 % 0 in /  0.0 mm
21:36 46.9 °F /  8.3 °C 13.8 °F /  -10.1 °C 30 in /  1016.8 hPa Calm     26 % 0 in /  0.0 mm
21:41 46.8 °F /  8.2 °C 13.6 °F /  -10.2 °C 30 in /  1016.8 hPa WSW 1.2 mph /  1.9 km/h 1.2 mph /  1.9 km/h 26 % 0 in /  0.0 mm
21:45 40.8 °F /  4.9 °C 13.3 °F /  -10.4 °C 30 in /  1016.8 hPa NW 2 mph /  3.2 km/h 2 mph /  3.2 km/h 32 % 0 in /  0.0 mm
21:46 46.8 °F /  8.2 °C 13.6 °F /  -10.2 °C 30 in /  1016.8 hPa SW 2.3 mph /  3.7 km/h 2.3 mph /  3.7 km/h 26 % 0 in /  0.0 mm
21:51 46.6 °F /  8.1 °C 13.5 °F /  -10.3 °C 30 in /  1015.8 hPa SW 2.3 mph /  3.7 km/h 2.3 mph /  3.7 km/h 26 % 0 in /  0.0 mm
21:55 40.6 °F /  4.8 °C 12.9 °F /  -10.6 °C 30.1 in /  1017.8 hPa North 1 mph /  1.6 km/h 2 mph /  3.2 km/h 32 % 0 in /  0.0 mm
21:56 46.2 °F /  7.9 °C 13.3 °F /  -10.4 °C 30 in /  1015.8 hPa SSW 2.3 mph /  3.7 km/h 2.3 mph /  3.7 km/h 26 % 0 in /  0.0 mm
22:01 46 °F /  7.8 °C 12.9 °F /  -10.6 °C 30 in /  1015.8 hPa SW 2.3 mph /  3.7 km/h 2.3 mph /  3.7 km/h 26 % 0 in /  0.0 mm
22:05 40.6 °F /  4.8 °C 12.9 °F /  -10.6 °C 30.1 in /  1017.8 hPa North 1 mph /  1.6 km/h 2 mph /  3.2 km/h 32 % 0 in /  0.0 mm
22:06 46 °F /  7.8 °C 13.8 °F /  -10.1 °C 30 in /  1016.8 hPa WNW 2.3 mph /  3.7 km/h 2.3 mph /  3.7 km/h 27 % 0 in /  0.0 mm
22:11 46 °F /  7.8 °C 13.8 °F /  -10.1 °C 30 in /  1016.8 hPa South 2.3 mph /  3.7 km/h 2.3 mph /  3.7 km/h 27 % 0 in /  0.0 mm
22:15 40.1 °F /  4.5 °C 12.6 °F /  -10.8 °C 30 in /  1016.8 hPa NNE 2 mph /  3.2 km/h 3 mph /  4.8 km/h 32 % 0 in /  0.0 mm
22:16 45.9 °F /  7.7 °C 13.6 °F /  -10.2 °C 30 in /  1016.8 hPa West 1.2 mph /  1.9 km/h   27 % 0 in /  0.0 mm
22:21 45.7 °F /  7.6 °C 13.6 °F /  -10.2 °C 30 in /  1016.8 hPa WSW 1.4 mph /  2.3 km/h 1.4 mph /  2.3 km/h 27 % 0 in /  0.0 mm
22:25 39.6 °F /  4.2 °C 12.7 °F /  -10.7 °C 30.1 in /  1017.8 hPa Calm   1 mph /  1.6 km/h 33 % 0 in /  0.0 mm
22:26 45.3 °F /  7.4 °C 13.3 °F /  -10.4 °C 30 in /  1016.8 hPa West 2.6 mph /  4.2 km/h 2.6 mph /  4.2 km/h 27 % 0 in /  0.0 mm
22:31 45.1 °F /  7.3 °C 13.1 °F /  -10.5 °C 30 in /  1016.8 hPa WSW 2.6 mph /  4.2 km/h 2.6 mph /  4.2 km/h 27 % 0 in /  0.0 mm
22:35 39.4 °F /  4.1 °C 12.6 °F /  -10.8 °C 30.1 in /  1017.8 hPa Calm     33 % 0 in /  0.0 mm
22:36 45.3 °F /  7.4 °C 13.3 °F /  -10.4 °C 30 in /  1016.8 hPa West 2.4 mph /  3.9 km/h 2.4 mph /  3.9 km/h 27 % 0 in /  0.0 mm
22:41 45.5 °F /  7.5 °C 13.5 °F /  -10.3 °C 30 in /  1016.8 hPa SSW 2.3 mph /  3.7 km/h 2.3 mph /  3.7 km/h 27 % 0 in /  0.0 mm
22:45 39.4 °F /  4.1 °C 12.6 °F /  -10.8 °C 30.1 in /  1017.8 hPa NW 1 mph /  1.6 km/h 2 mph /  3.2 km/h 33 % 0 in /  0.0 mm
22:46 45.5 °F /  7.5 °C 13.5 °F /  -10.3 °C 30 in /  1016.8 hPa West 2.4 mph /  3.9 km/h 2.4 mph /  3.9 km/h 27 % 0 in /  0.0 mm
22:51 45.7 °F /  7.6 °C 14.4 °F /  -9.8 °C 30 in /  1015.8 hPa WSW 3.5 mph /  5.6 km/h 3.5 mph /  5.6 km/h 28 % 0 in /  0.0 mm
22:55 39.2 °F /  4.0 °C 13.1 °F /  -10.5 °C 30.1 in /  1018.8 hPa Calm   2 mph /  3.2 km/h 34 % 0 in /  0.0 mm
22:56 45.1 °F /  7.3 °C 13.8 °F /  -10.1 °C 30 in /  1015.8 hPa SSE 3.1 mph /  5.0 km/h 3.1 mph /  5.0 km/h 28 % 0 in /  0.0 mm
23:01 45.5 °F /  7.5 °C 14.2 °F /  -9.9 °C 30 in /  1015.8 hPa WNW 3.5 mph /  5.6 km/h 3.5 mph /  5.6 km/h 28 % 0 in /  0.0 mm
23:05 38.7 °F /  3.7 °C 12.7 °F /  -10.7 °C 30.1 in /  1018.8 hPa West 1 mph /  1.6 km/h 1 mph /  1.6 km/h 34 % 0 in /  0.0 mm
23:06 45.5 °F /  7.5 °C 14.2 °F /  -9.9 °C 30 in /  1015.8 hPa Calm     28 % 0 in /  0.0 mm
23:11 45 °F /  7.2 °C 13.8 °F /  -10.1 °C 30 in /  1015.8 hPa WSW 3.5 mph /  5.6 km/h 3.5 mph /  5.6 km/h 28 % 0 in /  0.0 mm
23:15 38.5 °F /  3.6 °C 12.6 °F /  -10.8 °C 30.1 in /  1017.8 hPa West 1 mph /  1.6 km/h 3 mph /  4.8 km/h 34 % 0 in /  0.0 mm
23:16 44.2 °F /  6.8 °C 13.1 °F /  -10.5 °C 30 in /  1015.8 hPa South 1.2 mph /  1.9 km/h 1.2 mph /  1.9 km/h 28 % 0 in /  0.0 mm
23:18 44.4 °F /  6.9 °C 13.3 °F /  -10.4 °C 30 in /  1015.8 hPa South 1.2 mph /  1.9 km/h 1.2 mph /  1.9 km/h 28 % 0 in /  0.0 mm
23:23 44.6 °F /  7.0 °C 13.5 °F /  -10.3 °C 30 in /  1015.8 hPa WSW 2.3 mph /  3.7 km/h 2.6 mph /  4.2 km/h 28 % 0 in /  0.0 mm
23:25 38.7 °F /  3.7 °C 12.7 °F /  -10.7 °C 30.1 in /  1017.8 hPa WNW 1 mph /  1.6 km/h 2 mph /  3.2 km/h 34 % 0 in /  0.0 mm
23:28 44.4 °F /  6.9 °C 13.3 °F /  -10.4 °C 30 in /  1015.8 hPa West 4.6 mph /  7.4 km/h 4.6 mph /  7.4 km/h 28 % 0 in /  0.0 mm
23:33 44.6 °F /  7.0 °C 14.4 °F /  -9.8 °C 30 in /  1015.8 hPa WSW 3.3 mph /  5.3 km/h 3.3 mph /  5.3 km/h 29 % 0 in /  0.0 mm
23:35 38.8 °F /  3.8 °C 12.7 °F /  -10.7 °C 30.1 in /  1017.8 hPa NNW 1 mph /  1.6 km/h 1 mph /  1.6 km/h 34 % 0 in /  0.0 mm
23:38 44.4 °F /  6.9 °C 14.2 °F /  -9.9 °C 30 in /  1015.8 hPa West 2.3 mph /  3.7 km/h 2.3 mph /  3.7 km/h 29 % 0 in /  0.0 mm
23:43 44.4 °F /  6.9 °C 14.2 °F /  -9.9 °C 30 in /  1015.8 hPa SE 1.2 mph /  1.9 km/h 1.2 mph /  1.9 km/h 29 % 0 in /  0.0 mm
23:45 38.7 °F /  3.7 °C 12.7 °F /  -10.7 °C 30 in /  1016.8 hPa NW 1 mph /  1.6 km/h 2 mph /  3.2 km/h 34 % 0 in /  0.0 mm
23:48 44.6 °F /  7.0 °C 14.4 °F /  -9.8 °C 30 in /  1015.8 hPa WNW 2.6 mph /  4.2 km/h 2.6 mph /  4.2 km/h 29 % 0 in /  0.0 mm
23:53 44.6 °F /  7.0 °C 14.4 °F /  -9.8 °C 30 in /  1015.8 hPa SW 1.2 mph /  1.9 km/h 1.2 mph /  1.9 km/h 29 % 0 in /  0.0 mm
23:55 38.5 °F /  3.6 °C 13.3 °F /  -10.4 °C 30.1 in /  1017.8 hPa WNW 1 mph /  1.6 km/h 1 mph /  1.6 km/h 35 % 0 in /  0.0 mm
23:58 44.6 °F /  7.0 °C 14.4 °F /  -9.8 °C 30 in /  1015.8 hPa WNW 2.3 mph /  3.7 km/h 2.3 mph /  3.7 km/h 29 % 0 in /  0.0 mm
Meteo Sesrovires
Elogis d' Weather Underground - 3.75 mb

Guio original per  Jim McMurry - jmcmurry@mwt.net Adaptat per a la plantilla per  Wim van der Kuil - Leuven-Template.eu

Trobareu la nostra informacio del temps tambe a:

Weather Underground

AWEKAS